Accueil
METAR-TAF:

METAR-TAF

Aéroports :

Aéroport de Quimper Bretagne, Pluguffan

Quimper, France

latitude: 47-58N, longitude: 004-10W, altitude: 92 m

Observation

Le bulletin a été fait il y a 13 minutes, à 08:30 UTC
Vent 4 kt de nord/nord-ouest
Température 12°C
Humidité 94%
Pression 1008 hPa
Visibilité 10 km ou plus
Nuages fragmentés à une hauteur de 800 ft
Ciel couvert à une hauteur de 1200 ft

METAR: LFRQ 150830Z AUTO 34004KT 9999 BKN008 OVC012 12/11 Q1008 TEMPO 3000 DZ OVC004

Heure: 10:43 (08:43 UTC)

Prévision

Le bulletin a été fait il y a 3 heures et 43 minutes, à 05:00 UTC
Prévision valable du 15 à 06 UTC au 16 à 06 UTC
Vent 5 kt de nord-ouest
Visibilité: 8000 m
Ciel couvert à une hauteur de 1000 ft
Temporairement
du 15 à 06 UTC au 16 à 06 UTC
Visibilité: 3000 m
Ciel couvert à une hauteur de 400 ft
bruine

TAF: LFRQ 150500Z 1506/1606 32005KT 8000 OVC010 TEMPO 1506/1606 3000 DZ OVC004

Observations et prévisions météorologiques de plus de 4000 aéroports (messages METAR et TAF).

Les stations disponibles sont représentées par des disques jaunes et rouges sur la carte.

Passer la souris dessus pour voir le nom de la station.

Cliquer dessus pour voir les observations et prévisions météorologiques.

Pour changer de carte: cliquez sur les boutons verts avec une croix noire pour zoomer, sur le bouton vert avec un tiret pour effectuer un zoom arrière, ou sur les flèches vertes pour les cartes adjacentes.


METAR-TAF: